Terminal Aerodrome Forecast
Issued by NWS

Home | Current Version | Previous Version | Text Only | Print | Product List | Glossary On
Versions: 1 2 3 4 5 6 7 8 9 10 11 12 13 14 15 16 17 18 19 20 21
000
FTUS43 KOAX 270520
TAFCDR
TAF
KCDR 270520Z 2706/2806 20009KT 5SM BR SCT020 OVC050
     FM270900 18007KT 4SM BR SCT008 OVC020
     FM271500 25008KT P6SM SCT100=

USA.gov is the U.S. government's official web portal to all federal, state and local government web resources and services.